Pagina principale
METAR-TAF:

METAR-TAF

Aeroporti :

Dole, Francia

latitudine: 47-02-34N, longitudine: 005-26-06E, altezza: 196 m

Osservazione

Il bollettino è stato emesso 18 minuti fa, alle 19:30 UTC
Vento 24 kt da sud con raffiche fino a 35 kt
Temperature 14°C
Umidità 63%
Pressione 1017 hPa
Visibilità 10 km o più
nessuna nube inferiore a 1500 m e nessun cumulonembo

METAR: LFGJ 161930Z AUTO 19024G35KT CAVOK 14/07 Q1017

Ora: 20:48 (19:48 UTC)

Previsione

Il bollettino è stato emesso 5 ore e 49 minuti fa, alle 13:59 UTC
Previsione valida dal 16 alle 15 UTC al 16 alle 24 UTC
Vento 20 kt da sud con raffiche fino a 30 kt
Visibilità 10 km o più
nessuna nube inferiore a 1500 m e nessun cumulonembo
Probabilità 40% :
Temporaneamente
dal 16 alle 15 UTC al 16 alle 24 UTC
Vento 25 kt da sud/sud-ovest con raffiche fino a 40 kt

TAF: LFGJ 161359Z 1615/1624 19020G30KT CAVOK PROB40 TEMPO 1615/1624 20025G40KT

Osservazioni e previsioni meteorologiche di più di 4000 aeroporti (messaggi METAR e TAF).

Le stazioni disponibili sono rappresentate dai dischi gialli e rossi sulla carta.

Puntare il mouse per vedere il nome della stazione.

Clicca sopra per visualizzare le osservazioni e previsioni meteorologiche.

Per cambiare la mappa : fare clic sui pulsanti verdi con una croce nera per ingrandire, il pulsante verde con un trattino per diminuire, o sulla freccia verde per le mappe adiacenti.


METAR-TAF: